createdAt,value
2018-01-12T00:00:23.127Z,51.28
2018-01-12T00:01:31.956Z,51.66
2018-01-12T00:02:40.785Z,51.47
2018-01-12T00:03:49.613Z,51.47
2018-01-12T00:04:58.442Z,51.18
2018-01-12T00:06:07.424Z,51.28
2018-01-12T00:07:16.254Z,51.57
2018-01-12T00:08:25.083Z,51.28
2018-01-12T00:09:33.911Z,51.28
2018-01-12T00:10:42.742Z,51.47
2018-01-12T00:11:51.570Z,51.47
2018-01-12T00:13:00.670Z,51.37
2018-01-12T00:14:09.499Z,51.47
2018-01-12T00:15:18.327Z,51.95
2018-01-12T00:16:27.156Z,51.76
2018-01-12T00:17:36.283Z,51.66
2018-01-12T00:18:45.111Z,51.85
2018-01-12T00:19:53.939Z,52.14
2018-01-12T00:21:02.769Z,51.57
2018-01-12T00:22:11.595Z,51.66
2018-01-12T00:23:20.573Z,51.47
2018-01-12T00:24:29.681Z,51.47
2018-01-12T00:25:38.788Z,51.95
2018-01-12T00:26:47.887Z,51.95
2018-01-12T00:27:56.714Z,51.76
2018-01-12T00:29:05.642Z,51.37
2018-01-12T00:30:14.472Z,51.66
2018-01-12T00:31:23.297Z,51.66
2018-01-12T00:32:32.123Z,51.76
2018-01-12T00:33:41.225Z,51.76
2018-01-12T00:34:50.052Z,51.37
2018-01-12T00:35:58.877Z,51.18
2018-01-12T00:37:07.706Z,51.47
2018-01-12T00:38:16.866Z,51.57
2018-01-12T00:39:25.694Z,51.57
2018-01-12T00:40:34.623Z,51.57
2018-01-12T00:41:43.727Z,51.57
2018-01-12T00:42:52.554Z,51.28
2018-01-12T00:44:01.662Z,51.18
2018-01-12T00:45:10.767Z,51.37
2018-01-12T00:46:19.745Z,50.9
2018-01-12T00:47:28.573Z,50.81
2018-01-12T00:48:37.400Z,51.47
2018-01-12T00:49:46.227Z,51.18
2018-01-12T00:50:55.055Z,51.37
2018-01-12T00:52:04.035Z,51.18
2018-01-12T00:53:12.861Z,51.37
2018-01-12T00:54:21.964Z,51.28
2018-01-12T00:55:30.794Z,51.18
2018-01-12T00:56:39.895Z,51.28
2018-01-12T00:57:49.045Z,51.66
2018-01-12T00:58:57.874Z,51.37
2018-01-12T01:00:06.705Z,50.9
2018-01-12T01:01:15.532Z,51.57
2018-01-12T01:02:24.360Z,50.81
2018-01-12T01:03:33.340Z,51.57
2018-01-12T01:04:42.165Z,51.18
2018-01-12T01:05:50.993Z,51.18
2018-01-12T01:06:59.824Z,50.99
2018-01-12T01:08:08.652Z,50.9
2018-01-12T01:09:17.782Z,50.71
2018-01-12T01:10:26.612Z,50.52
2018-01-12T01:11:35.443Z,50.99
2018-01-12T01:12:44.272Z,51.09
2018-01-12T01:13:53.098Z,50.99
2018-01-12T01:15:01.978Z,50.43
2018-01-12T01:16:10.828Z,50.9
2018-01-12T01:17:19.906Z,51.18
2018-01-12T01:18:28.729Z,50.43
2018-01-12T01:19:37.559Z,51.09
2018-01-12T01:20:46.537Z,50.62
2018-01-12T01:21:55.364Z,50.52
2018-01-12T01:23:04.467Z,50.62
2018-01-12T01:24:13.298Z,50.9
2018-01-12T01:25:22.127Z,50.9
2018-01-12T01:26:31.233Z,50.52
2018-01-12T01:27:40.062Z,50.9
2018-01-12T01:28:48.893Z,50.9
2018-01-12T01:29:57.718Z,50.62
2018-01-12T01:31:06.546Z,50.99
2018-01-12T01:32:15.374Z,51.18
2018-01-12T01:33:24.202Z,50.62
2018-01-12T01:34:33.033Z,50.24
2018-01-12T01:35:42.138Z,50.43
2018-01-12T01:36:50.966Z,50.52
2018-01-12T01:37:59.791Z,50.9
2018-01-12T01:39:08.616Z,50.24
2018-01-12T01:40:17.443Z,49.95
2018-01-12T01:41:26.273Z,49.48
2018-01-12T01:42:35.102Z,50.64
2018-01-12T01:43:44.231Z,50.15
2018-01-12T01:44:53.333Z,49.95
2018-01-12T01:46:02.163Z,50.52
2018-01-12T01:47:10.990Z,50.52
2018-01-12T01:48:19.823Z,50.43
2018-01-12T01:49:28.647Z,50.24
2018-01-12T01:50:37.750Z,50.05
2018-01-12T01:51:47.122Z,49.86
2018-01-12T01:52:55.955Z,50.05
2018-01-12T01:54:04.779Z,49.38
2018-01-12T01:55:13.657Z,49.38
2018-01-12T01:56:22.770Z,49.57
2018-01-12T01:57:31.609Z,49.48
2018-01-12T01:58:40.438Z,49.57
2018-01-12T01:59:49.266Z,49.57
2018-01-12T02:00:58.196Z,49.67
2018-01-12T02:02:07.026Z,49.48
2018-01-12T02:03:15.853Z,49.38
2018-01-12T02:04:24.955Z,49.48
2018-01-12T02:05:33.782Z,49.67
2018-01-12T02:06:42.760Z,49.67
2018-01-12T02:07:51.586Z,49.38
2018-01-12T02:09:00.415Z,49.57
2018-01-12T02:10:09.246Z,49.67
2018-01-12T02:11:18.346Z,49.57
2018-01-12T02:12:27.323Z,49.38
2018-01-12T02:13:36.153Z,49.19
2018-01-12T02:14:44.980Z,49.38
2018-01-12T02:15:53.808Z,49.48
2018-01-12T02:17:02.635Z,49.01
2018-01-12T02:18:11.611Z,49.38
2018-01-12T02:19:20.719Z,49.38
2018-01-12T02:20:29.821Z,49.48
2018-01-12T02:21:38.648Z,49.67
2018-01-12T02:22:47.476Z,49.29
2018-01-12T02:23:56.361Z,49.38
2018-01-12T02:25:05.187Z,49.29
2018-01-12T02:26:14.012Z,49.1
2018-01-12T02:27:22.842Z,48.72
2018-01-12T02:28:31.668Z,49.48
2018-01-12T02:29:40.746Z,49.38
2018-01-12T02:30:49.575Z,49.48
2018-01-12T02:31:58.401Z,49.48
2018-01-12T02:33:07.230Z,49.38
2018-01-12T02:34:16.060Z,49.19
2018-01-12T02:35:25.366Z,49.1
2018-01-12T02:36:34.193Z,49.38
2018-01-12T02:37:43.020Z,49.48
2018-01-12T02:38:51.851Z,49.01
2018-01-12T02:40:00.675Z,49.19
2018-01-12T02:41:09.555Z,49.29
2018-01-12T02:42:18.664Z,49.1
2018-01-12T02:43:27.493Z,49.19
2018-01-12T02:44:36.329Z,49.19
2018-01-12T02:45:45.150Z,49.1
2018-01-12T02:46:53.980Z,49.1
2018-01-12T02:48:02.808Z,49.38
2018-01-12T02:49:11.640Z,49.67
2018-01-12T02:50:20.465Z,49.38
2018-01-12T02:51:29.294Z,48.91
2018-01-12T02:52:38.369Z,49.1
2018-01-12T02:53:47.195Z,48.63
2018-01-12T02:54:56.023Z,49.38
2018-01-12T02:56:04.850Z,49.38
2018-01-12T02:57:13.678Z,49.29
2018-01-12T02:58:22.882Z,49.01
2018-01-12T02:59:31.710Z,49.01
2018-01-12T03:00:40.538Z,49.01
2018-01-12T03:01:49.364Z,49.1
2018-01-12T03:02:58.738Z,48.63
2018-01-12T03:04:07.669Z,49.1
2018-01-12T03:05:16.500Z,48.63
2018-01-12T03:06:25.321Z,48.54
2018-01-12T03:07:34.155Z,49.19
2018-01-12T03:08:43.258Z,48.54
2018-01-12T03:09:52.186Z,49.1
2018-01-12T03:11:01.013Z,48.44
2018-01-12T03:12:09.844Z,48.72
2018-01-12T03:13:18.672Z,48.82
2018-01-12T03:14:27.502Z,49.01
2018-01-12T03:15:36.482Z,48.34
2018-01-12T03:16:45.310Z,49.29
2018-01-12T03:17:54.140Z,49.01
2018-01-12T03:19:02.968Z,49.1
2018-01-12T03:20:11.794Z,49.1
2018-01-12T03:21:20.671Z,48.72
2018-01-12T03:22:29.500Z,49.1
2018-01-12T03:23:38.328Z,49.01
2018-01-12T03:24:47.154Z,49.19
2018-01-12T03:25:55.983Z,48.91
2018-01-12T03:27:04.864Z,48.72
2018-01-12T03:28:13.692Z,48.82
2018-01-12T03:29:22.517Z,49.1
2018-01-12T03:30:31.347Z,49.01
2018-01-12T03:31:40.178Z,49.19
2018-01-12T03:32:49.107Z,49.1
2018-01-12T03:33:58.484Z,49.1
2018-01-12T03:35:07.591Z,48.54
2018-01-12T03:36:16.420Z,48.63
2018-01-12T03:37:25.241Z,48.72
2018-01-12T03:38:34.169Z,48.54
2018-01-12T03:39:42.997Z,48.54
2018-01-12T03:40:51.825Z,48.44
2018-01-12T03:42:00.655Z,48.34
2018-01-12T03:43:09.485Z,48.44
2018-01-12T03:44:18.413Z,48.54
2018-01-12T03:45:27.241Z,48.15
2018-01-12T03:46:36.068Z,48.44
2018-01-12T03:47:45.446Z,48.25
2018-01-12T03:48:54.277Z,48.54
2018-01-12T03:50:03.209Z,48.06
2018-01-12T03:51:12.033Z,48.63
2018-01-12T03:52:20.862Z,48.25
2018-01-12T03:53:29.690Z,48.54
2018-01-12T03:54:38.517Z,47.96
2018-01-12T03:55:47.598Z,48.25
2018-01-12T03:56:56.423Z,48.15
2018-01-12T03:58:05.525Z,48.25
2018-01-12T03:59:14.353Z,48.25
2018-01-12T04:00:23.456Z,47.96
2018-01-12T04:01:32.283Z,48.25
2018-01-12T04:02:41.111Z,47.96
2018-01-12T04:03:50.260Z,48.15
2018-01-12T04:04:59.089Z,48.25
2018-01-12T04:06:07.918Z,47.87
2018-01-12T04:07:17.046Z,47.96
2018-01-12T04:08:25.874Z,47.96
2018-01-12T04:09:34.976Z,47.96
2018-01-12T04:10:43.803Z,48.15
2018-01-12T04:11:52.631Z,47.96
2018-01-12T04:13:01.510Z,48.15
2018-01-12T04:14:10.338Z,47.87
2018-01-12T04:15:19.168Z,47.96
2018-01-12T04:16:27.992Z,48.15
2018-01-12T04:17:36.819Z,48.15
2018-01-12T04:18:45.949Z,47.77
2018-01-12T04:19:54.773Z,48.06
2018-01-12T04:21:03.882Z,47.87
2018-01-12T04:22:12.982Z,48.06
2018-01-12T04:23:21.811Z,47.77
2018-01-12T04:24:30.796Z,48.06
2018-01-12T04:25:39.624Z,48.15
2018-01-12T04:26:48.724Z,48.06
2018-01-12T04:27:57.553Z,47.77
2018-01-12T04:29:06.659Z,47.77
2018-01-12T04:30:15.588Z,47.77
2018-01-12T04:31:24.416Z,47.87
2018-01-12T04:32:33.246Z,47.87
2018-01-12T04:33:42.072Z,47.77
2018-01-12T04:34:51.171Z,47.87
2018-01-12T04:36:00.154Z,47.77
2018-01-12T04:37:08.982Z,47.96
2018-01-12T04:38:17.809Z,48.06
2018-01-12T04:39:26.639Z,47.96
2018-01-12T04:40:35.746Z,48.06
2018-01-12T04:41:44.573Z,47.96
2018-01-12T04:42:53.402Z,47.96
2018-01-12T04:44:02.238Z,48.06
2018-01-12T04:45:11.064Z,47.87
2018-01-12T04:46:19.896Z,47.96
2018-01-12T04:47:28.773Z,48.06
2018-01-12T04:48:37.877Z,48.06
2018-01-12T04:49:46.975Z,47.87
2018-01-12T04:50:55.803Z,48.06
2018-01-12T04:52:04.631Z,47.87
2018-01-12T04:53:13.509Z,47.87
2018-01-12T04:54:22.335Z,48.06
2018-01-12T04:55:31.161Z,47.96
2018-01-12T04:56:39.994Z,47.96
2018-01-12T04:57:48.835Z,47.96
2018-01-12T04:58:57.678Z,48.06
2018-01-12T05:00:06.519Z,47.96
2018-01-12T05:01:15.362Z,47.87
2018-01-12T05:02:24.204Z,48.06
2018-01-12T05:03:33.321Z,48.06
2018-01-12T05:04:42.264Z,48.06
2018-01-12T05:05:51.383Z,47.87
2018-01-12T05:07:00.220Z,48.15
2018-01-12T05:08:09.338Z,47.96
2018-01-12T05:09:18.181Z,48.06
2018-01-12T05:10:27.024Z,47.77
2018-01-12T05:11:35.866Z,48.06
2018-01-12T05:12:44.708Z,47.96
2018-01-12T05:13:53.553Z,48.06
2018-01-12T05:15:02.408Z,48.06
2018-01-12T05:16:11.903Z,47.87
2018-01-12T05:17:20.750Z,47.77
2018-01-12T05:18:29.592Z,47.96
2018-01-12T05:19:38.431Z,47.77
2018-01-12T05:20:47.272Z,47.87
2018-01-12T05:21:56.115Z,48.06
2018-01-12T05:23:04.951Z,48.06
2018-01-12T05:24:13.780Z,47.96
2018-01-12T05:25:22.611Z,48.06
2018-01-12T05:26:31.439Z,47.96
2018-01-12T05:27:40.368Z,47.87
2018-01-12T05:28:49.474Z,48.06
2018-01-12T05:29:58.301Z,47.87
2018-01-12T05:31:07.130Z,47.96
2018-01-12T05:32:16.236Z,47.87
2018-01-12T05:33:25.211Z,47.87
2018-01-12T05:34:34.041Z,47.96
2018-01-12T05:35:42.874Z,48.06
2018-01-12T05:36:51.702Z,47.96
2018-01-12T05:38:00.545Z,47.96
2018-01-12T05:39:09.806Z,47.87
2018-01-12T05:40:18.668Z,47.58
2018-01-12T05:41:27.506Z,47.96
2018-01-12T05:42:36.604Z,48.15
2018-01-12T05:43:45.433Z,47.77
2018-01-12T05:44:54.564Z,47.87
2018-01-12T05:46:03.672Z,48.15
2018-01-12T05:47:12.550Z,47.68
2018-01-12T05:48:21.379Z,47.49
2018-01-12T05:49:30.208Z,47.96
2018-01-12T05:50:39.087Z,48.15
2018-01-12T05:51:47.911Z,47.87
2018-01-12T05:52:56.738Z,48.06
2018-01-12T05:54:05.570Z,48.15
2018-01-12T05:55:14.397Z,48.15
2018-01-12T05:56:23.226Z,47.87
2018-01-12T05:57:32.054Z,47.87
2018-01-12T05:58:40.884Z,47.58
2018-01-12T05:59:49.713Z,47.96
2018-01-12T06:00:58.592Z,48.15
2018-01-12T06:02:07.820Z,48.06
2018-01-12T06:03:16.647Z,47.87
2018-01-12T06:04:25.475Z,47.96
2018-01-12T06:05:34.311Z,48.06
2018-01-12T06:06:43.131Z,47.87
2018-01-12T06:07:51.959Z,47.68
2018-01-12T06:09:00.787Z,48.06
2018-01-12T06:10:09.614Z,48.25
2018-01-12T06:11:18.446Z,47.58
2018-01-12T06:12:27.272Z,47.58
2018-01-12T06:13:36.529Z,47.87
2018-01-12T06:14:45.361Z,48.06
2018-01-12T06:15:54.465Z,48.15
2018-01-12T06:17:03.291Z,47.39
2018-01-12T06:18:12.120Z,48.15
2018-01-12T06:19:20.948Z,47.68
2018-01-12T06:20:29.777Z,47.58
2018-01-12T06:21:38.606Z,47.77
2018-01-12T06:22:47.433Z,47.77
2018-01-12T06:23:56.267Z,47.87
2018-01-12T06:25:05.246Z,47.68
2018-01-12T06:26:14.077Z,47.58
2018-01-12T06:27:22.911Z,47.49
2018-01-12T06:28:31.736Z,47.87
2018-01-12T06:29:40.839Z,47.87
2018-01-12T06:30:49.718Z,47.87
2018-01-12T06:31:58.587Z,47.87
2018-01-12T06:33:07.371Z,47.87
2018-01-12T06:34:16.475Z,47.58
2018-01-12T06:35:25.306Z,47.87
2018-01-12T06:36:34.808Z,47.58
2018-01-12T06:37:43.910Z,47.28
2018-01-12T06:38:52.737Z,46.9
2018-01-12T06:40:01.564Z,46.9
2018-01-12T06:41:10.391Z,46.92
2018-01-12T06:42:19.318Z,46.64
2018-01-12T06:43:28.425Z,46.73
2018-01-12T06:44:37.252Z,46.64
2018-01-12T06:45:46.081Z,46.54
2018-01-12T06:46:54.914Z,46.16
2018-01-12T06:48:04.039Z,46.45
2018-01-12T06:49:12.869Z,46.35
2018-01-12T06:50:21.697Z,46.04
2018-01-12T06:51:30.802Z,45.78
2018-01-12T06:52:39.630Z,45.48
2018-01-12T06:53:48.506Z,44.53
2018-01-12T06:54:57.333Z,44.06
2018-01-12T06:56:06.161Z,44.08
2018-01-12T06:57:15.043Z,44.17
2018-01-12T06:58:23.870Z,44.36
2018-01-12T06:59:33.118Z,44.46
2018-01-12T07:00:42.226Z,43.88
2018-01-12T07:01:51.052Z,43.88
2018-01-12T07:02:59.880Z,44.27
2018-01-12T07:04:08.708Z,44.17
2018-01-12T07:05:17.871Z,44.08
2018-01-12T07:06:26.698Z,43.88
2018-01-12T07:07:35.805Z,44.17
2018-01-12T07:08:44.635Z,44.08
2018-01-12T07:09:53.468Z,44.08
2018-01-12T07:11:02.621Z,44.17
2018-01-12T07:12:11.463Z,44.08
2018-01-12T07:13:20.568Z,43.88
2018-01-12T07:14:29.671Z,43.98
2018-01-12T07:15:38.501Z,44.46
2018-01-12T07:16:47.377Z,44.46
2018-01-12T07:17:56.205Z,44.46
2018-01-12T07:19:05.043Z,44.46
2018-01-12T07:20:13.871Z,44.08
2018-01-12T07:21:22.705Z,44.46
2018-01-12T07:22:31.678Z,44.46
2018-01-12T07:23:40.504Z,44.55
2018-01-12T07:24:49.335Z,44.36
2018-01-12T07:25:58.170Z,44.27
2018-01-12T07:27:06.997Z,44.27
2018-01-12T07:28:15.824Z,44.46
2018-01-12T07:29:24.658Z,44.36
2018-01-12T07:30:33.486Z,44.17
2018-01-12T07:31:42.317Z,44.46
2018-01-12T07:32:51.139Z,44.36
2018-01-12T07:34:00.654Z,45.12
2018-01-12T07:35:09.471Z,44.17
2018-01-12T07:36:18.574Z,44.46
2018-01-12T07:37:27.404Z,44.17
2018-01-12T07:38:36.229Z,44.46
2018-01-12T07:39:45.210Z,44.36
2018-01-12T07:40:54.035Z,44.46
2018-01-12T07:42:02.864Z,44.55
2018-01-12T07:43:11.692Z,44.55
2018-01-12T07:44:20.520Z,44.27
2018-01-12T07:45:29.602Z,44.36
2018-01-12T07:46:38.433Z,44.46
2018-01-12T07:47:47.258Z,44.55
2018-01-12T07:48:56.087Z,44.55
2018-01-12T07:50:04.917Z,44.84
2018-01-12T07:51:13.744Z,44.65
2018-01-12T07:52:22.571Z,44.65
2018-01-12T07:53:31.399Z,44.46
2018-01-12T07:54:40.235Z,44.93
2018-01-12T07:55:49.053Z,44.65
2018-01-12T07:56:58.033Z,44.84
2018-01-12T07:58:07.135Z,44.62
2018-01-12T07:59:16.241Z,44.84
2018-01-12T08:00:25.339Z,44.65
2018-01-12T08:01:34.170Z,44.84
2018-01-12T08:02:43.000Z,44.65
2018-01-12T08:03:51.829Z,44.81
2018-01-12T08:05:00.655Z,44.81
2018-01-12T08:06:09.482Z,45.03
2018-01-12T08:07:18.310Z,44.72
2018-01-12T08:08:27.186Z,44.53
2018-01-12T08:09:36.016Z,44.72
2018-01-12T08:10:45.121Z,44.72
2018-01-12T08:11:53.956Z,44.72
2018-01-12T08:13:02.781Z,44.53
2018-01-12T08:14:11.607Z,44.91
2018-01-12T08:15:20.435Z,44.72
2018-01-12T08:16:29.261Z,44.62
2018-01-12T08:17:38.088Z,44.53
2018-01-12T08:18:46.915Z,44.62
2018-01-12T08:19:55.893Z,44.65
2018-01-12T08:21:04.721Z,44.36
2018-01-12T08:22:13.550Z,44.65
2018-01-12T08:23:22.376Z,45.1
2018-01-12T08:24:31.204Z,45
2018-01-12T08:25:40.038Z,44.72
2018-01-12T08:26:48.864Z,44.62
2018-01-12T08:27:57.693Z,44.81
2018-01-12T08:29:06.519Z,45
2018-01-12T08:30:15.346Z,44.91
2018-01-12T08:31:24.226Z,44.53
2018-01-12T08:32:33.052Z,44.72
2018-01-12T08:33:41.877Z,44.43
2018-01-12T08:34:50.702Z,44.74
2018-01-12T08:35:59.529Z,44.62
2018-01-12T08:37:08.403Z,44.55
2018-01-12T08:38:17.230Z,44.53
2018-01-12T08:39:26.342Z,44.93
2018-01-12T08:40:35.172Z,44.81
2018-01-12T08:41:44.272Z,44.53
2018-01-12T08:42:53.247Z,44.81
2018-01-12T08:44:02.074Z,44.81
2018-01-12T08:45:10.901Z,44.81
2018-01-12T08:46:19.728Z,44.91
2018-01-12T08:47:28.556Z,45
2018-01-12T08:48:37.383Z,44.81
2018-01-12T08:49:46.209Z,44.72
2018-01-12T08:50:55.038Z,44.91
2018-01-12T08:52:03.864Z,45
2018-01-12T08:53:12.691Z,44.72
2018-01-12T08:54:21.567Z,44.91
2018-01-12T08:55:30.393Z,44.81
2018-01-12T08:56:39.224Z,44.93
2018-01-12T08:57:48.049Z,45
2018-01-12T08:58:56.875Z,44.53
2018-01-12T09:00:05.853Z,44.53
2018-01-12T09:01:14.679Z,44.43
2018-01-12T09:02:23.786Z,44.62
2018-01-12T09:03:32.615Z,44.53
2018-01-12T09:04:41.443Z,44.53
2018-01-12T09:05:50.696Z,44.55
2018-01-12T09:06:59.523Z,44.81
2018-01-12T09:08:08.350Z,45.1
2018-01-12T09:09:17.176Z,44.91
2018-01-12T09:10:26.008Z,44.93
2018-01-12T09:11:34.880Z,45.12
2018-01-12T09:12:43.708Z,44.91
2018-01-12T09:13:52.809Z,44.91
2018-01-12T09:15:01.634Z,44.91
2018-01-12T09:16:10.460Z,44.62
2018-01-12T09:17:19.288Z,45
2018-01-12T09:18:28.115Z,44.72
2018-01-12T09:19:36.943Z,44.84
2018-01-12T09:20:45.769Z,45.1
2018-01-12T09:21:54.597Z,45
2018-01-12T09:23:03.476Z,45.5
2018-01-12T09:24:12.303Z,45.21
2018-01-12T09:25:21.408Z,45.88
2018-01-12T09:26:30.234Z,45.38
2018-01-12T09:27:39.061Z,45
2018-01-12T09:28:48.040Z,45.48
2018-01-12T09:29:56.872Z,45.48
2018-01-12T09:31:05.691Z,44.72
2018-01-12T09:32:14.516Z,45
2018-01-12T09:33:23.341Z,45.21
2018-01-12T09:34:32.320Z,44.81
2018-01-12T09:35:41.419Z,45.19
2018-01-12T09:36:50.246Z,45.1
2018-01-12T09:37:59.346Z,45.38
2018-01-12T09:39:08.191Z,45.29
2018-01-12T09:40:17.069Z,44.91
2018-01-12T09:41:26.180Z,45.1
2018-01-12T09:42:35.010Z,45
2018-01-12T09:43:43.837Z,44.91
2018-01-12T09:44:52.939Z,45.48
2018-01-12T09:46:02.064Z,45.1
2018-01-12T09:47:11.439Z,45.59
2018-01-12T09:48:20.266Z,45.29
2018-01-12T09:49:29.094Z,45.48
2018-01-12T09:50:37.920Z,45.57
2018-01-12T09:51:47.079Z,45.48
2018-01-12T09:52:55.905Z,45.86
2018-01-12T09:54:05.010Z,45.38
2018-01-12T09:55:13.836Z,46.04
2018-01-12T09:56:22.938Z,45.86
2018-01-12T09:57:31.916Z,45.67
2018-01-12T09:58:40.793Z,45.29
2018-01-12T09:59:49.621Z,45.48
2018-01-12T10:00:58.448Z,45.29
2018-01-12T10:02:07.278Z,45.29
2018-01-12T10:03:16.154Z,45.38
2018-01-12T10:04:24.986Z,45.57
2018-01-12T10:05:33.811Z,45
2018-01-12T10:06:42.638Z,45.29
2018-01-12T10:07:51.465Z,45.38
2018-01-12T10:09:00.292Z,45.19
2018-01-12T10:10:09.119Z,45.29
2018-01-12T10:11:17.945Z,45.48
2018-01-12T10:12:26.772Z,45.67
2018-01-12T10:13:35.601Z,45.57
2018-01-12T10:14:44.729Z,45.29
2018-01-12T10:15:53.556Z,45.1
2018-01-12T10:17:02.386Z,45.1
2018-01-12T10:18:11.489Z,45.29
2018-01-12T10:19:20.317Z,45.1
2018-01-12T10:20:29.294Z,44.91
2018-01-12T10:21:38.119Z,45.38
2018-01-12T10:22:46.946Z,45.1
2018-01-12T10:23:55.794Z,45.19
2018-01-12T10:25:04.600Z,45.1
2018-01-12T10:26:13.629Z,45.48
2018-01-12T10:27:22.456Z,45.48
2018-01-12T10:28:31.284Z,45.29
2018-01-12T10:29:40.112Z,45.38
2018-01-12T10:30:48.940Z,45
2018-01-12T10:31:57.768Z,45.29
2018-01-12T10:33:06.594Z,45.38
2018-01-12T10:34:15.422Z,45.48
2018-01-12T10:35:24.248Z,45.48
2018-01-12T10:36:33.077Z,45
2018-01-12T10:37:42.056Z,44.91
2018-01-12T10:38:51.159Z,45
2018-01-12T10:39:59.985Z,44.91
2018-01-12T10:41:08.812Z,44.72
2018-01-12T10:42:17.640Z,44.72
2018-01-12T10:43:26.565Z,45
2018-01-12T10:44:35.393Z,44.91
2018-01-12T10:45:44.223Z,44.53
2018-01-12T10:46:53.324Z,44.91
2018-01-12T10:48:02.150Z,44.81
2018-01-12T10:49:11.078Z,44.72
2018-01-12T10:50:20.182Z,44.53
2018-01-12T10:51:29.011Z,44.91
2018-01-12T10:52:37.837Z,44.62
2018-01-12T10:53:46.664Z,44.84
2018-01-12T10:54:55.765Z,44.74
2018-01-12T10:56:04.596Z,45
2018-01-12T10:57:13.425Z,44.81
2018-01-12T10:58:22.249Z,44.91
2018-01-12T10:59:31.079Z,44.81
2018-01-12T11:00:39.955Z,44.62
2018-01-12T11:01:48.781Z,44.72
2018-01-12T11:02:57.882Z,44.65
2018-01-12T11:04:06.709Z,44.43
2018-01-12T11:05:15.537Z,44.55
2018-01-12T11:06:24.664Z,44.55
2018-01-12T11:07:33.491Z,44.74
2018-01-12T11:08:42.320Z,44.84
2018-01-12T11:09:51.147Z,44.93
2018-01-12T11:10:59.974Z,44.93
2018-01-12T11:12:09.101Z,45.21
2018-01-12T11:13:17.929Z,45.4
2018-01-12T11:14:26.757Z,45.12
2018-01-12T11:15:35.859Z,44.93
2018-01-12T11:16:44.685Z,44.74
2018-01-12T11:17:53.563Z,45.21
2018-01-12T11:19:02.678Z,45.5
2018-01-12T11:20:11.828Z,45.5
2018-01-12T11:21:20.655Z,45.31
2018-01-12T11:22:29.482Z,45.4
2018-01-12T11:23:38.406Z,45.5
2018-01-12T11:24:47.234Z,45.5
2018-01-12T11:25:56.061Z,45.97
2018-01-12T11:27:04.895Z,45.97
2018-01-12T11:28:13.716Z,45.69
2018-01-12T11:29:22.825Z,45.12
2018-01-12T11:30:31.654Z,45.88
2018-01-12T11:31:40.482Z,46.04
2018-01-12T11:32:49.310Z,46.14
2018-01-12T11:33:58.141Z,45.4
2018-01-12T11:35:07.515Z,45.97
2018-01-12T11:36:16.340Z,45.78
2018-01-12T11:37:25.166Z,45.88
2018-01-12T11:38:33.999Z,45.78
2018-01-12T11:39:42.824Z,45.88
2018-01-12T11:40:51.752Z,45.88
2018-01-12T11:42:00.578Z,45.88
2018-01-12T11:43:09.407Z,46.04
2018-01-12T11:44:18.234Z,45.88
2018-01-12T11:45:27.060Z,45.78
2018-01-12T11:46:36.037Z,45.97
2018-01-12T11:47:44.866Z,45.97
2018-01-12T11:48:53.694Z,45.5
2018-01-12T11:50:02.522Z,45.69
2018-01-12T11:51:11.351Z,45.4
2018-01-12T11:52:20.606Z,45.4
2018-01-12T11:53:29.432Z,45.69
2018-01-12T11:54:38.259Z,45.78
2018-01-12T11:55:47.084Z,45.97
2018-01-12T11:56:55.942Z,45.95
2018-01-12T11:58:04.888Z,45.97
2018-01-12T11:59:13.715Z,45.88
2018-01-12T12:00:22.814Z,46.35
2018-01-12T12:01:31.641Z,46.16
2018-01-12T12:02:40.475Z,46.92
2018-01-12T12:03:49.574Z,47.39
2018-01-12T12:04:58.401Z,46.83
2018-01-12T12:06:07.223Z,46.83
2018-01-12T12:07:16.051Z,47.3
2018-01-12T12:08:25.156Z,46.92
2018-01-12T12:09:34.084Z,47.49
2018-01-12T12:10:42.913Z,47.3
2018-01-12T12:11:51.743Z,47.2
2018-01-12T12:13:00.568Z,48.15
2018-01-12T12:14:09.396Z,48.25
2018-01-12T12:15:18.524Z,47.58
2018-01-12T12:16:27.353Z,47.68
2018-01-12T12:17:36.181Z,47.68
2018-01-12T12:18:45.007Z,47.68
2018-01-12T12:19:53.839Z,47.77
2018-01-12T12:21:02.663Z,47.68
2018-01-12T12:22:11.489Z,47.77
2018-01-12T12:23:20.318Z,47.96
2018-01-12T12:24:29.153Z,48.63
2018-01-12T12:25:37.978Z,48.54
2018-01-12T12:26:47.062Z,48.44
2018-01-12T12:27:55.884Z,48.44
2018-01-12T12:29:04.989Z,48.44
2018-01-12T12:30:13.819Z,48.63
2018-01-12T12:31:22.654Z,48.34
2018-01-12T12:32:31.483Z,48.25
2018-01-12T12:33:40.582Z,47.96
2018-01-12T12:34:49.409Z,47.94
2018-01-12T12:35:58.236Z,48.13
2018-01-12T12:37:07.065Z,47.56
2018-01-12T12:38:16.042Z,47.47
2018-01-12T12:39:24.871Z,47.47
2018-01-12T12:40:33.700Z,47.56
2018-01-12T12:41:42.525Z,47.47
2018-01-12T12:42:51.352Z,47.39
2018-01-12T12:44:00.332Z,47.58
2018-01-12T12:45:09.158Z,47.49
2018-01-12T12:46:17.985Z,47.39
2018-01-12T12:47:26.811Z,47.39
2018-01-12T12:48:35.639Z,47.09
2018-01-12T12:49:44.464Z,47.28
2018-01-12T12:50:53.292Z,47.02
2018-01-12T12:52:02.117Z,47.75
2018-01-12T12:53:10.944Z,47.11
2018-01-12T12:54:19.771Z,47.11
2018-01-12T12:55:28.602Z,47.68
2018-01-12T12:56:37.427Z,47.11
2018-01-12T12:57:46.256Z,47.2
2018-01-12T12:58:55.088Z,47.2
2018-01-12T13:00:03.914Z,47.11
2018-01-12T13:01:13.064Z,47.2
2018-01-12T13:02:21.892Z,47.2
2018-01-12T13:03:31.269Z,47.3
2018-01-12T13:04:40.095Z,47.3
2018-01-12T13:05:48.923Z,47.49
2018-01-12T13:06:57.752Z,47.39
2018-01-12T13:08:06.578Z,47.39
2018-01-12T13:09:15.411Z,47.39
2018-01-12T13:10:24.234Z,47.87
2018-01-12T13:11:33.061Z,47.68
2018-01-12T13:12:41.987Z,47.58
2018-01-12T13:13:50.815Z,47.58
2018-01-12T13:14:59.691Z,47.49
2018-01-12T13:16:08.472Z,47.49
2018-01-12T13:17:17.575Z,47.87
2018-01-12T13:18:26.502Z,48.15
2018-01-12T13:19:35.329Z,47.56
2018-01-12T13:20:44.155Z,47.87
2018-01-12T13:21:52.983Z,47.77
2018-01-12T13:23:01.812Z,47.96
2018-01-12T13:24:11.016Z,48.15
2018-01-12T13:25:19.843Z,48.15
2018-01-12T13:26:28.674Z,47.96
2018-01-12T13:27:37.500Z,47.96
2018-01-12T13:28:46.327Z,47.96
2018-01-12T13:29:55.454Z,47.87
2018-01-12T13:31:04.280Z,47.87
2018-01-12T13:32:13.110Z,48.06
2018-01-12T13:33:21.936Z,48.25
2018-01-12T13:34:30.765Z,47.87
2018-01-12T13:35:39.746Z,48.15
2018-01-12T13:36:48.845Z,48.15
2018-01-12T13:37:57.673Z,47.96
2018-01-12T13:39:06.501Z,48.06
2018-01-12T13:40:15.327Z,47.77
2018-01-12T13:41:24.306Z,48.63
2018-01-12T13:42:33.408Z,48.44
2018-01-12T13:43:42.235Z,48.44
2018-01-12T13:44:51.064Z,49.01
2018-01-12T13:45:59.893Z,48.91
2018-01-12T13:47:08.870Z,48.72
2018-01-12T13:48:17.698Z,49.01
2018-01-12T13:49:26.525Z,49.38
2018-01-12T13:50:35.352Z,49.57
2018-01-12T13:51:44.182Z,49.1
2018-01-12T13:52:53.010Z,49.48
2018-01-12T13:54:01.835Z,49.29
2018-01-12T13:55:10.662Z,49.29
2018-01-12T13:56:19.488Z,49.38
2018-01-12T13:57:28.317Z,49.67
2018-01-12T13:58:37.445Z,49.57
2018-01-12T13:59:46.273Z,50.15
2018-01-12T14:00:55.113Z,49.67
2018-01-12T14:02:03.926Z,50.15
2018-01-12T14:03:12.753Z,49.76
2018-01-12T14:04:21.632Z,49.86
2018-01-12T14:05:30.458Z,50.43
2018-01-12T14:06:39.287Z,50.81
2018-01-12T14:07:48.113Z,51.66
2018-01-12T14:08:56.937Z,51.95
2018-01-12T14:10:05.766Z,51.85
2018-01-12T14:11:14.866Z,51.57
2018-01-12T14:12:23.696Z,51.76
2018-01-12T14:13:32.526Z,51.66
2018-01-12T14:14:41.356Z,52.14
2018-01-12T14:15:50.237Z,52.61
2018-01-12T14:16:59.078Z,52.14
2018-01-12T14:18:07.917Z,52.61
2018-01-12T14:19:16.751Z,52.42
2018-01-12T14:20:25.579Z,52.61
2018-01-12T14:21:34.806Z,51.95
2018-01-12T14:22:43.635Z,52.04
2018-01-12T14:23:52.462Z,52.23
2018-01-12T14:25:01.288Z,52.51
2018-01-12T14:26:10.118Z,51.85
2018-01-12T14:27:18.996Z,51.57
2018-01-12T14:28:28.096Z,52.7
2018-01-12T14:29:36.924Z,52.8
2018-01-12T14:30:45.750Z,52.51
2018-01-12T14:31:54.578Z,52.04
2018-01-12T14:33:03.557Z,52.42
2018-01-12T14:34:12.382Z,51.76
2018-01-12T14:35:21.211Z,52.23
2018-01-12T14:36:30.037Z,52.04
2018-01-12T14:37:38.863Z,52.14
2018-01-12T14:38:47.791Z,51.66
2018-01-12T14:39:56.621Z,51.76
2018-01-12T14:41:05.446Z,52.23
2018-01-12T14:42:14.275Z,52.42
2018-01-12T14:43:23.380Z,52.14
2018-01-12T14:44:32.208Z,52.89
2018-01-12T14:45:41.033Z,52.7
2018-01-12T14:46:49.860Z,52.8
2018-01-12T14:47:58.687Z,52.7
2018-01-12T14:49:07.513Z,52.61
2018-01-12T14:50:16.338Z,52.51
2018-01-12T14:51:25.167Z,52.61